Time;durP1;ratioP1;P1;durP2;ratioP2;P2;SDS_P1;SDS_P2;PMS_P1;PMS_P2;Temp;Humidity;BMP_temperature;BMP_pressure;BME280_temperature;BME280_humidity;BME280_pressure;Samples;Min_cycle;Max_cycle;Signal;HPM_P1;HPM_P2
2022/05/12 00:00:12;;;;;;;6.97;6.28;;;;;;;13.31;62.61;97033.51;1654884;86;25731;-74
2022/05/12 00:02:40;;;;;;;9.50;6.70;;;;;;;13.31;62.63;97038.93;1654921;86;25769;-75
2022/05/12 00:05:07;;;;;;;7.45;6.65;;;;;;;13.29;62.65;97043.76;1654867;86;25659;-74
2022/05/12 00:07:34;;;;;;;13.48;6.47;;;;;;;13.33;62.61;97036.81;1654908;86;25780;-74
2022/05/12 00:10:01;;;;;;;7.30;6.25;;;;;;;13.24;62.69;97035.53;1654793;86;25991;-74
2022/05/12 00:12:27;;;;;;;9.00;6.55;;;;;;;13.20;62.60;97040.30;1654889;86;25752;-74
2022/05/12 00:14:54;;;;;;;8.50;5.80;;;;;;;13.22;62.65;97042.24;1654806;86;27505;-74
2022/05/12 00:17:21;;;;;;;7.70;6.45;;;;;;;13.20;62.57;97034.88;1654943;86;25255;-74
2022/05/12 00:19:47;;;;;;;7.92;6.70;;;;;;;13.20;62.66;97038.94;1655017;86;25672;-74
2022/05/12 00:22:14;;;;;;;7.20;6.10;;;;;;;13.20;62.74;97034.34;1654922;86;25980;-73
2022/05/12 00:24:40;;;;;;;11.03;6.70;;;;;;;13.15;62.71;97027.48;1654944;86;25660;-75
2022/05/12 00:27:07;;;;;;;10.13;6.58;;;;;;;13.14;62.74;97033.95;1654836;86;26908;-76
2022/05/12 00:29:33;;;;;;;7.60;6.65;;;;;;;13.09;63.01;97031.08;1654823;86;25866;-74
2022/05/12 00:32:01;;;;;;;9.00;6.80;;;;;;;13.09;63.16;97034.32;1654690;86;25909;-74
2022/05/12 00:34:28;;;;;;;6.78;5.95;;;;;;;13.07;63.12;97027.78;1654970;86;26754;-74
2022/05/12 00:36:54;;;;;;;8.45;6.28;;;;;;;13.02;63.05;97028.21;1654748;86;25901;-74
2022/05/12 00:39:21;;;;;;;7.72;6.35;;;;;;;12.95;63.10;97026.42;1654879;86;27467;-74
2022/05/12 00:41:48;;;;;;;9.45;6.33;;;;;;;12.99;63.04;97021.37;1654794;86;25680;-74
2022/05/12 00:44:16;;;;;;;7.75;5.80;;;;;;;13.04;62.93;97028.80;1654810;86;26068;-74
2022/05/12 00:46:44;;;;;;;9.05;7.20;;;;;;;13.08;62.92;97019.13;1654915;86;26022;-74
2022/05/12 00:49:31;;;;;;;7.60;6.08;;;;;;;13.11;62.99;97022.19;1654912;86;25696;-75
2022/05/12 00:52:08;;;;;;;7.08;6.37;;;;;;;13.11;63.04;97018.13;1654574;86;27423;-76
2022/05/12 00:55:16;;;;;;;7.97;5.80;;;;;;;13.09;63.07;97027.02;1653086;86;25796;-74
2022/05/12 00:57:52;;;;;;;9.80;5.97;;;;;;;13.07;63.00;97021.00;1654835;86;26049;-74
2022/05/12 01:00:20;;;;;;;9.50;6.70;;;;;;;13.05;62.99;97019.06;1654894;86;25835;-74
2022/05/12 01:02:51;;;;;;;8.58;5.92;;;;;;;13.06;62.97;97022.06;1654790;86;25780;-74
2022/05/12 01:05:18;;;;;;;11.18;6.25;;;;;;;13.07;63.02;97029.13;1654900;86;27398;-74
2022/05/12 01:07:47;;;;;;;11.55;6.60;;;;;;;13.03;62.84;97016.31;1618416;88;25859;-76
2022/05/12 01:10:14;;;;;;;6.25;5.62;;;;;;;13.03;62.85;97017.14;1618781;88;25857;-76
2022/05/12 01:12:44;;;;;;;6.80;6.10;;;;;;;12.99;62.73;97010.00;1618646;88;26678;-74
2022/05/12 01:15:13;;;;;;;7.87;6.50;;;;;;;13.04;62.72;97013.34;1618721;88;25827;-75
2022/05/12 01:17:39;;;;;;;9.73;6.40;;;;;;;13.07;62.61;97012.87;1618844;88;27382;-75
2022/05/12 01:20:08;;;;;;;8.48;6.42;;;;;;;13.11;62.57;97005.11;1618641;88;25799;-74
2022/05/12 01:22:52;;;;;;;7.08;6.37;;;;;;;13.12;62.59;97007.58;1618575;88;25969;-74
2022/05/12 01:25:23;;;;;;;7.67;6.87;;;;;;;13.14;62.65;97010.92;1618683;88;26008;-73
2022/05/12 01:27:50;;;;;;;7.60;6.77;;;;;;;13.13;62.76;97008.41;1618812;88;26940;-74
2022/05/12 01:30:21;;;;;;;11.75;6.50;;;;;;;13.16;62.39;97018.25;1618803;88;27483;-76
2022/05/12 01:32:48;;;;;;;7.85;6.97;;;;;;;13.21;62.47;97017.03;1618733;88;25826;-75
2022/05/12 01:35:19;;;;;;;7.55;6.35;;;;;;;13.23;62.36;97020.33;1618931;88;25939;-74
2022/05/12 01:37:47;;;;;;;8.50;5.83;;;;;;;13.24;62.41;97016.56;1618992;88;26002;-74
2022/05/12 01:40:19;;;;;;;7.42;6.35;;;;;;;13.23;62.28;97016.27;1617076;88;25905;-74
2022/05/12 01:42:45;;;;;;;8.27;7.13;;;;;;;13.24;62.24;97016.56;1618661;87;27498;-74
2022/05/12 01:45:13;;;;;;;7.97;5.97;;;;;;;13.23;62.44;97021.69;1617146;87;25825;-74
2022/05/12 01:47:42;;;;;;;8.95;6.00;;;;;;;13.20;62.42;97014.55;1616946;87;25869;-74
2022/05/12 01:50:09;;;;;;;8.25;5.55;;;;;;;13.17;62.50;97015.84;1616982;87;26210;-74
2022/05/12 01:52:39;;;;;;;7.70;6.30;;;;;;;13.17;62.28;97017.20;1599766;88;25876;-76
2022/05/12 01:55:06;;;;;;;7.30;5.80;;;;;;;13.20;62.22;97005.06;1609750;89;27700;-75
2022/05/12 01:57:33;;;;;;;9.88;6.37;;;;;;;13.27;62.09;97007.96;1655330;86;25707;-74
2022/05/12 02:00:00;;;;;;;7.92;5.83;;;;;;;13.33;62.01;97007.52;1650907;86;25732;-74
2022/05/12 02:02:28;;;;;;;6.75;5.97;;;;;;;13.35;61.98;97012.18;1648750;85;26767;-74
2022/05/12 02:04:54;;;;;;;8.43;6.40;;;;;;;13.31;61.99;97011.83;1649241;85;26553;-74
2022/05/12 02:07:21;;;;;;;9.98;6.37;;;;;;;13.25;62.00;97009.25;1648786;87;28041;-76
2022/05/12 02:09:47;;;;;;;6.90;6.20;;;;;;;13.24;61.98;97005.72;1648723;87;25718;-76
2022/05/12 02:12:14;;;;;;;7.83;6.30;;;;;;;13.26;61.94;97002.25;1648844;87;25682;-74
2022/05/12 02:14:41;;;;;;;9.05;6.60;;;;;;;13.26;61.94;96999.53;1618956;87;26110;-74
2022/05/12 02:17:07;;;;;;;9.08;5.90;;;;;;;13.25;62.11;97003.30;1618940;87;25607;-74
2022/05/12 02:19:34;;;;;;;6.37;5.78;;;;;;;13.16;62.02;96988.45;1618785;88;27374;-75
2022/05/12 02:22:02;;;;;;;9.90;5.67;;;;;;;13.12;62.13;96995.92;1618493;88;25754;-75
2022/05/12 02:24:29;;;;;;;7.12;5.95;;;;;;;13.08;62.07;96989.31;1618632;88;25306;-74
2022/05/12 02:26:56;;;;;;;7.83;5.65;;;;;;;13.06;62.19;96990.91;1620946;87;25987;-74
2022/05/12 02:29:24;;;;;;;6.20;5.25;;;;;;;13.06;62.09;96990.91;1618824;87;25762;-73
2022/05/12 02:31:51;;;;;;;9.25;5.40;;;;;;;13.09;61.96;96989.08;1618776;88;28166;-76
2022/05/12 02:34:17;;;;;;;8.03;5.85;;;;;;;13.14;61.92;96990.59;1618709;87;25731;-74
2022/05/12 02:39:12;;;;;;;8.40;6.05;;;;;;;13.15;61.81;96994.95;1537585;91;26132;-74
2022/05/12 02:41:39;;;;;;;6.37;5.75;;;;;;;13.16;61.91;96999.84;1539232;92;25834;-74
2022/05/12 02:44:05;;;;;;;7.58;5.35;;;;;;;13.15;61.89;96996.31;1554018;91;27387;-75
2022/05/12 02:46:32;;;;;;;9.80;5.90;;;;;;;13.12;61.85;96998.63;1553511;92;25923;-74
2022/05/12 02:48:59;;;;;;;9.43;5.83;;;;;;;13.06;61.77;97005.80;1552568;92;25813;-74
2022/05/12 02:51:25;;;;;;;6.85;6.05;;;;;;;13.07;61.84;97004.75;1553540;92;26773;-74
2022/05/12 02:53:52;;;;;;;6.90;6.22;;;;;;;13.03;61.84;97002.23;1554161;91;25782;-75
2022/05/12 02:56:18;;;;;;;11.57;6.25;;;;;;;13.01;62.06;96995.40;1554009;91;27457;-74
2022/05/12 02:58:45;;;;;;;7.08;5.90;;;;;;;12.93;62.12;97000.63;1553901;91;25842;-74
2022/05/12 03:01:11;;;;;;;10.38;6.28;;;;;;;12.88;62.14;97005.94;1554153;91;25889;-74
2022/05/12 03:03:38;;;;;;;8.33;6.53;;;;;;;12.88;62.21;96997.28;1553305;92;26035;-75
2022/05/12 03:06:04;;;;;;;6.70;5.65;;;;;;;12.92;62.19;97005.78;1553695;92;25959;-74
2022/05/12 03:08:31;;;;;;;7.67;6.12;;;;;;;12.94;62.22;97007.16;1554192;91;28376;-74
2022/05/12 03:10:58;;;;;;;7.17;5.83;;;;;;;12.95;62.24;97007.46;1552327;92;25885;-74
2022/05/12 03:13:24;;;;;;;7.72;6.37;;;;;;;12.95;62.29;97003.92;1554069;92;26343;-74
2022/05/12 03:15:51;;;;;;;7.37;6.58;;;;;;;12.96;62.28;97015.06;1554309;91;26059;-74
2022/05/12 03:18:20;;;;;;;10.10;6.50;;;;;;;12.93;62.35;97010.11;1553331;92;25391;-74
2022/05/12 03:20:47;;;;;;;7.28;6.05;;;;;;;12.85;62.37;97014.53;1553948;92;28067;-75
2022/05/12 03:23:14;;;;;;;7.95;6.45;;;;;;;12.75;62.49;97011.59;1553054;92;25777;-74
2022/05/12 03:25:43;;;;;;;7.50;6.25;;;;;;;12.73;62.77;97020.47;1548520;91;25940;-74
2022/05/12 03:28:11;;;;;;;10.70;6.12;;;;;;;12.73;62.74;97019.12;1548088;92;26576;-74
2022/05/12 03:30:37;;;;;;;8.53;6.17;;;;;;;12.67;62.93;97016.83;1548051;92;25374;-75
2022/05/12 03:33:04;;;;;;;7.25;6.47;;;;;;;12.60;63.08;97013.39;1548092;92;27408;-75
2022/05/12 03:35:30;;;;;;;9.45;6.37;;;;;;;12.53;63.19;97014.05;1548161;92;25877;-74
2022/05/12 03:37:57;;;;;;;7.00;5.65;;;;;;;12.49;63.49;97012.84;1547863;92;25812;-74
2022/05/12 03:40:23;;;;;;;8.15;6.03;;;;;;;12.42;63.60;97012.97;1548060;92;26087;-74
2022/05/12 03:42:52;;;;;;;7.55;5.97;;;;;;;12.38;63.63;97013.13;1605635;85;25805;-74
2022/05/12 03:45:21;;;;;;;10.88;6.67;;;;;;;12.37;63.75;97018.23;1645910;86;28221;-73
2022/05/12 03:47:48;;;;;;;7.10;6.28;;;;;;;12.38;63.92;97022.59;1646629;87;25907;-75
2022/05/12 03:50:19;;;;;;;14.40;6.75;;;;;;;12.35;63.99;97013.58;1646790;86;26288;-74
2022/05/12 03:52:47;;;;;;;9.63;6.37;;;;;;;12.32;64.05;97013.23;1646610;87;26028;-74
2022/05/12 03:55:17;;;;;;;8.70;6.12;;;;;;;12.30;64.23;97018.05;1646953;87;25932;-76
2022/05/12 03:57:46;;;;;;;8.18;5.87;;;;;;;12.32;64.35;97020.00;1646437;87;27557;-74
2022/05/12 04:00:18;;;;;;;13.10;6.58;;;;;;;12.34;64.46;97017.34;1633859;87;25273;-76
2022/05/12 04:02:46;;;;;;;7.00;6.20;;;;;;;12.39;64.65;97009.36;1621050;88;25754;-74
2022/05/12 04:05:14;;;;;;;7.55;6.28;;;;;;;12.45;64.84;97012.48;1624066;87;25984;-73
2022/05/12 04:07:43;;;;;;;11.57;6.45;;;;;;;12.48;64.80;97018.79;1623603;88;25814;-74
2022/05/12 04:10:12;;;;;;;8.98;6.87;;;;;;;12.50;64.99;97004.50;1623522;87;27518;-74
2022/05/12 04:12:39;;;;;;;10.68;8.13;;;;;;;12.54;65.09;97004.34;1624013;87;25771;-75
2022/05/12 04:15:08;;;;;;;11.60;9.35;;;;;;;12.57;65.19;97009.27;1623877;88;25290;-74
2022/05/12 04:17:35;;;;;;;13.38;8.73;;;;;;;12.59;65.27;97008.50;1623989;88;26018;-74
2022/05/12 04:20:06;;;;;;;11.65;9.05;;;;;;;12.66;65.49;97008.41;1621941;88;25771;-75
2022/05/12 04:22:33;;;;;;;13.38;10.65;;;;;;;12.73;65.52;97002.87;1625182;87;27394;-74
2022/05/12 04:25:00;;;;;;;17.65;12.15;;;;;;;12.79;65.69;97009.55;1623992;88;25297;-75
2022/05/12 04:27:27;;;;;;;19.00;13.83;;;;;;;12.84;65.66;97008.81;1597212;89;25274;-74
2022/05/12 04:29:53;;;;;;;23.25;15.85;;;;;;;12.90;65.81;97010.07;1623784;88;26053;-74
2022/05/12 04:32:20;;;;;;;19.40;15.03;;;;;;;12.95;65.81;97018.83;1629691;86;25699;-75
2022/05/12 04:37:33;;;;;;;15.93;12.78;;;;;;;13.12;65.57;97015.72;1654100;86;26519;-75
2022/05/12 04:40:23;;;;;;;20.12;12.68;;;;;;;13.22;65.50;97015.97;1656073;85;25780;-73
2022/05/12 04:42:52;;;;;;;10.18;9.00;;;;;;;13.33;65.71;97018.36;1603733;89;25991;-74
2022/05/12 04:45:21;;;;;;;13.70;8.70;;;;;;;13.42;65.73;97012.03;1575569;90;25900;-75
2022/05/12 04:47:48;;;;;;;11.85;8.30;;;;;;;13.51;65.58;97015.52;1603716;88;27220;-74
2022/05/12 04:50:20;;;;;;;10.25;7.37;;;;;;;13.63;65.22;97006.82;1575320;91;25896;-74
2022/05/12 04:52:47;;;;;;;10.03;7.28;;;;;;;13.74;65.55;97009.20;1575220;91;25841;-74
2022/05/12 04:55:16;;;;;;;10.63;7.00;;;;;;;13.84;65.55;97002.62;1586216;89;26018;-75
2022/05/12 04:57:45;;;;;;;9.65;7.12;;;;;;;13.96;65.68;97009.36;1575350;91;26341;-75
2022/05/12 05:00:20;;;;;;;10.03;7.22;;;;;;;14.11;65.56;96997.44;1603917;88;27629;-73
2022/05/12 05:02:47;;;;;;;8.58;7.17;;;;;;;14.26;65.56;97003.65;1575531;91;25770;-74
2022/05/12 05:05:14;;;;;;;10.05;7.00;;;;;;;14.40;65.47;97002.31;1575501;91;25343;-75
2022/05/12 05:07:40;;;;;;;7.45;6.60;;;;;;;14.51;65.39;96998.70;1585815;90;26045;-74
2022/05/12 05:10:09;;;;;;;11.38;6.53;;;;;;;14.68;65.43;96996.00;1575476;91;25311;-74
2022/05/12 05:12:36;;;;;;;12.90;6.42;;;;;;;14.82;65.33;97006.00;1585703;90;27663;-74
2022/05/12 05:15:04;;;;;;;10.23;6.00;;;;;;;14.93;64.96;96999.65;1575207;89;25892;-74
2022/05/12 05:17:31;;;;;;;9.80;5.83;;;;;;;15.11;64.60;96995.28;1603819;88;25745;-75
2022/05/12 05:19:57;;;;;;;8.78;6.00;;;;;;;15.25;64.04;97000.66;1575129;91;26048;-77
2022/05/12 05:22:24;;;;;;;8.58;5.97;;;;;;;15.39;63.86;96998.41;1603988;88;25545;-74
2022/05/12 05:24:51;;;;;;;7.62;5.03;;;;;;;15.56;63.62;96998.39;1575227;91;27382;-74
2022/05/12 05:27:17;;;;;;;6.58;5.60;;;;;;;15.81;62.96;97004.98;1603844;88;25840;-78
2022/05/12 05:29:44;;;;;;;7.05;5.15;;;;;;;15.98;62.35;96997.25;1575299;91;25801;-77
2022/05/12 05:32:12;;;;;;;6.45;4.72;;;;;;;16.17;62.05;96992.58;1604331;88;26772;-77
2022/05/12 05:37:07;;;;;;;7.60;5.33;;;;;;;16.69;61.11;96993.88;1614059;87;28205;-76
2022/05/12 05:39:35;;;;;;;11.57;4.80;;;;;;;16.92;60.48;96994.33;1645873;86;26832;-75
2022/05/12 05:42:10;;;;;;;9.60;4.78;;;;;;;17.09;59.91;96992.00;1646023;87;25832;-75
2022/05/12 05:44:37;;;;;;;5.85;5.25;;;;;;;17.25;59.50;96992.39;1646221;86;25989;-77
2022/05/12 05:47:05;;;;;;;7.22;4.85;;;;;;;17.48;59.10;96987.88;1646150;87;25809;-78
2022/05/12 05:49:33;;;;;;;7.12;5.15;;;;;;;17.77;58.37;96986.11;1646116;87;27385;-75
2022/05/12 05:54:44;;;;;;;10.30;5.25;;;;;;;18.03;57.38;96982.37;1646155;87;25719;-76
2022/05/12 05:57:11;;;;;;;6.17;5.55;;;;;;;18.19;57.08;96981.33;1646042;87;26603;-77
2022/05/12 05:59:38;;;;;;;10.13;5.42;;;;;;;18.34;56.64;96978.64;1646268;87;25735;-78
2022/05/12 06:02:05;;;;;;;12.15;5.17;;;;;;;18.48;56.21;96975.34;1645841;87;28177;-74
2022/05/12 06:04:32;;;;;;;11.53;4.95;;;;;;;18.61;55.83;96976.21;1646022;86;25829;-75
2022/05/12 06:06:59;;;;;;;6.50;4.40;;;;;;;18.73;55.50;96980.86;1645987;87;25841;-73
2022/05/12 06:09:26;;;;;;;7.92;4.87;;;;;;;18.86;55.10;96980.31;1645822;87;26090;-75
2022/05/12 06:11:52;;;;;;;7.62;4.95;;;;;;;18.97;54.77;96976.47;1646107;87;25856;-74
2022/05/12 06:14:19;;;;;;;11.35;4.78;;;;;;;19.08;54.41;96976.73;1646189;87;27469;-76
2022/05/12 06:16:45;;;;;;;5.33;4.50;;;;;;;19.19;54.22;96974.00;1646008;87;25753;-77
2022/05/12 06:19:12;;;;;;;9.08;5.12;;;;;;;19.29;53.89;96972.61;1646098;87;25792;-75
2022/05/12 06:21:38;;;;;;;6.50;4.55;;;;;;;19.39;53.48;96974.77;1646110;87;26122;-78
2022/05/12 06:24:06;;;;;;;5.58;4.55;;;;;;;19.49;53.35;96971.75;1646213;87;25823;-75
2022/05/12 06:26:33;;;;;;;5.22;4.70;;;;;;;19.59;52.95;96968.43;1644331;87;27405;-75
2022/05/12 06:28:59;;;;;;;8.88;4.50;;;;;;;19.68;52.74;96961.84;1625777;88;25706;-75
2022/05/12 06:31:29;;;;;;;5.92;4.45;;;;;;;19.77;52.45;96963.72;1626880;87;25754;-75
2022/05/12 06:33:55;;;;;;;6.50;4.53;;;;;;;19.88;52.38;96965.03;1624368;88;26032;-75
2022/05/12 06:36:21;;;;;;;6.75;4.78;;;;;;;19.99;52.18;96961.96;1656579;86;25891;-76
2022/05/12 06:38:48;;;;;;;7.08;4.83;;;;;;;20.09;52.06;96950.13;1631718;86;28225;-75
2022/05/12 06:41:15;;;;;;;7.92;5.10;;;;;;;20.22;51.46;96953.61;1604993;88;25734;-76
2022/05/12 06:43:45;;;;;;;7.72;5.25;;;;;;;20.33;51.40;96950.24;1627192;87;25703;-75
2022/05/12 06:46:15;;;;;;;6.95;5.30;;;;;;;20.45;51.21;96950.19;1604771;88;26951;-76
2022/05/12 06:48:49;;;;;;;10.00;5.30;;;;;;;20.59;50.97;96949.54;1633575;87;26802;-75
2022/05/12 06:51:16;;;;;;;8.68;5.08;;;;;;;20.70;50.78;96940.12;1630460;86;27341;-75
2022/05/12 06:53:44;;;;;;;9.03;5.03;;;;;;;20.80;50.67;96942.22;1604749;88;25702;-76
2022/05/12 06:56:11;;;;;;;7.08;4.80;;;;;;;20.93;50.43;96942.11;1630111;87;25919;-75
2022/05/12 06:58:39;;;;;;;5.60;5.08;;;;;;;21.02;50.21;96943.11;1613770;88;26993;-75
2022/05/12 07:01:06;;;;;;;5.72;4.80;;;;;;;21.15;50.05;96941.06;1597574;88;25812;-78
2022/05/12 07:03:33;;;;;;;9.25;5.10;;;;;;;21.29;49.94;96939.03;1595888;89;27431;-77
2022/05/12 07:05:59;;;;;;;11.40;5.45;;;;;;;21.39;49.36;96942.48;1584609;89;26365;-75
2022/05/12 07:08:26;;;;;;;6.72;4.67;;;;;;;21.52;49.11;96943.71;1588288;87;25833;-74
2022/05/12 07:10:53;;;;;;;6.80;4.80;;;;;;;21.62;48.71;96940.02;1587804;88;26032;-77
2022/05/12 07:13:20;;;;;;;10.50;5.08;;;;;;;21.69;47.85;96947.37;1628036;87;25734;-75
2022/05/12 07:15:50;;;;;;;7.70;4.80;;;;;;;21.80;47.95;96948.32;1620927;88;27426;-79
2022/05/12 07:18:19;;;;;;;7.85;5.30;;;;;;;21.90;47.43;96953.67;1621070;88;25681;-77
2022/05/12 07:29:06;;;;;;;9.48;4.65;;;;;;;22.30;46.73;96959.77;1621100;88;27402;-76
2022/05/12 07:31:33;;;;;;;12.07;4.40;;;;;;;22.41;46.39;96966.75;1620870;88;25796;-74
2022/05/12 07:34:00;;;;;;;10.68;4.78;;;;;;;22.56;46.05;96950.02;1621708;88;25740;-75
2022/05/12 07:36:32;;;;;;;8.48;4.42;;;;;;;22.82;45.95;96963.41;1602386;87;26238;-77
2022/05/12 07:39:00;;;;;;;6.00;4.58;;;;;;;23.14;45.33;96951.55;1641897;85;25724;-79
2022/05/12 07:41:28;;;;;;;6.50;4.45;;;;;;;23.50;45.05;96948.42;1637983;86;27547;-76
2022/05/12 07:43:56;;;;;;;7.40;4.00;;;;;;;23.88;44.38;96943.52;1609427;89;25727;-77
2022/05/12 07:46:27;;;;;;;7.70;5.00;;;;;;;24.24;44.26;96949.67;1609345;89;26425;-75
2022/05/12 07:48:54;;;;;;;6.42;4.47;;;;;;;24.63;44.26;96937.45;1664671;85;26171;-78
2022/05/12 07:51:22;;;;;;;8.18;4.30;;;;;;;25.03;43.51;96934.80;1664750;86;25683;-77
2022/05/12 07:53:50;;;;;;;7.45;4.78;;;;;;;25.37;43.14;96940.52;1636883;87;27529;-78
2022/05/12 07:56:20;;;;;;;5.60;4.45;;;;;;;25.75;42.83;96936.72;1609257;89;25834;-77
2022/05/12 07:58:47;;;;;;;7.42;4.33;;;;;;;26.09;42.12;96937.94;1664792;85;25865;-74
2022/05/12 08:01:17;;;;;;;7.92;4.17;;;;;;;26.30;41.31;96930.70;1636931;86;26618;-74
2022/05/12 08:03:44;;;;;;;7.00;4.30;;;;;;;26.56;40.85;96934.88;1664774;86;25677;-75
2022/05/12 08:06:15;;;;;;;7.62;4.00;;;;;;;26.75;39.79;96927.03;1631812;87;27511;-75
2022/05/12 08:08:43;;;;;;;4.83;4.03;;;;;;;27.01;39.67;96924.84;1646479;86;25756;-76
2022/05/12 08:11:10;;;;;;;6.42;4.22;;;;;;;27.23;39.28;96919.89;1630488;86;25793;-77
2022/05/12 08:13:39;;;;;;;8.10;3.87;;;;;;;27.47;39.02;96919.31;1632593;86;26657;-76
2022/05/12 08:16:07;;;;;;;7.47;4.33;;;;;;;27.65;38.26;96929.80;1591905;89;25654;-75
2022/05/12 08:18:36;;;;;;;6.20;3.98;;;;;;;27.78;37.97;96932.08;1621819;87;27379;-75
2022/05/12 08:21:05;;;;;;;5.65;3.65;;;;;;;28.03;37.71;96933.91;1641631;86;25685;-76
2022/05/12 08:23:32;;;;;;;8.40;4.08;;;;;;;28.34;37.52;96924.45;1637338;87;25750;-75
2022/05/12 08:25:58;;;;;;;4.42;3.75;;;;;;;28.68;37.29;96913.06;1614557;88;25778;-76
2022/05/12 08:28:25;;;;;;;7.08;3.92;;;;;;;29.06;36.99;96910.69;1590137;90;25768;-74
2022/05/12 08:30:52;;;;;;;6.65;3.95;;;;;;;29.34;36.40;96903.36;1605979;89;28087;-74
2022/05/12 08:33:20;;;;;;;7.58;3.90;;;;;;;29.46;35.82;96906.19;1579525;90;25742;-74
2022/05/12 08:35:47;;;;;;;8.78;4.05;;;;;;;29.43;35.80;96915.22;1590094;90;25790;-75
2022/05/12 08:38:14;;;;;;;9.05;4.20;;;;;;;29.59;35.57;96914.75;1590111;90;26004;-75
2022/05/12 08:41:01;;;;;;;5.33;3.95;;;;;;;29.89;35.47;96906.20;1586262;90;25789;-73
2022/05/12 08:43:57;;;;;;;6.28;3.52;;;;;;;30.06;35.35;96911.56;1632418;85;27327;-75
2022/05/12 08:46:38;;;;;;;8.48;2.90;;;;;;;30.31;34.76;96908.94;1601857;88;25774;-75
2022/05/12 08:49:19;;;;;;;3.72;3.35;;;;;;;30.42;33.35;96917.07;1590004;88;25780;-74
2022/05/12 08:51:53;;;;;;;7.05;4.83;;;;;;;30.26;33.68;96915.35;1589240;90;26742;-77
2022/05/12 08:54:24;;;;;;;6.42;3.70;;;;;;;30.07;33.42;96913.16;1590923;88;25728;-75
2022/05/12 08:57:02;;;;;;;5.62;3.70;;;;;;;30.17;33.22;96908.53;1590638;88;27462;-74
2022/05/12 08:59:31;;;;;;;10.15;3.33;;;;;;;30.07;33.00;96911.77;1579619;89;25781;-75
2022/05/12 09:02:22;;;;;;;9.50;3.08;;;;;;;30.01;32.84;96921.52;1627967;87;25765;-75
2022/05/12 09:05:00;;;;;;;5.42;2.72;;;;;;;29.87;32.35;96905.73;1600293;89;25965;-74
2022/05/12 09:07:46;;;;;;;8.03;3.08;;;;;;;29.86;31.09;96908.28;1630324;87;26473;-75
2022/05/12 09:10:33;;;;;;;12.18;3.37;;;;;;;29.82;30.72;96910.16;1598472;88;27584;-74
2022/05/12 09:13:18;;;;;;;8.30;3.08;;;;;;;29.71;30.98;96916.73;1589451;89;25489;-78
2022/05/12 09:15:53;;;;;;;7.03;2.95;;;;;;;29.74;30.91;96915.47;1633085;86;25726;-74
2022/05/12 09:18:31;;;;;;;3.98;3.00;;;;;;;29.55;30.40;96924.97;1631823;86;26052;-76
2022/05/12 09:21:06;;;;;;;10.58;3.35;;;;;;;29.24;30.66;96917.67;1549678;91;25563;-76
2022/05/12 09:23:33;;;;;;;7.03;3.00;;;;;;;28.85;30.38;96931.00;1554115;91;28271;-75
2022/05/12 09:26:00;;;;;;;12.33;3.50;;;;;;;28.51;30.33;96932.62;1552214;92;25834;-77
2022/05/12 09:28:36;;;;;;;12.20;3.45;;;;;;;28.16;30.47;96937.58;1548740;92;25853;-77
2022/05/12 09:31:17;;;;;;;6.03;2.80;;;;;;;27.81;30.28;96942.52;1549237;92;26065;-75
2022/05/12 09:33:51;;;;;;;4.57;2.80;;;;;;;27.49;30.57;96946.13;1546453;91;25997;-75
2022/05/12 09:36:29;;;;;;;4.92;2.87;;;;;;;27.20;30.83;96943.27;1549075;92;27496;-76
2022/05/12 09:38:57;;;;;;;7.42;3.08;;;;;;;27.04;31.22;96957.42;1548935;92;25837;-76
2022/05/12 09:41:35;;;;;;;7.08;3.22;;;;;;;26.88;31.11;96967.58;1548506;91;25887;-75
2022/05/12 09:44:28;;;;;;;8.48;3.50;;;;;;;26.82;31.45;96948.67;1548940;92;26504;-76
2022/05/12 09:47:08;;;;;;;6.00;3.10;;;;;;;26.92;31.86;96951.70;1541504;92;25856;-75
2022/05/12 09:49:41;;;;;;;5.83;3.52;;;;;;;27.19;31.78;96951.34;1524003;94;27100;-78
2022/05/12 09:52:36;;;;;;;10.53;3.20;;;;;;;27.20;32.11;96946.05;1524388;94;26376;-76
2022/05/12 09:55:17;;;;;;;5.72;3.08;;;;;;;27.12;31.95;96945.50;1507260;95;26566;-75
2022/05/12 09:58:07;;;;;;;10.05;3.47;;;;;;;27.02;32.09;96950.01;1504168;94;25914;-76
2022/05/12 10:00:43;;;;;;;5.22;2.80;;;;;;;27.23;32.07;96957.86;1497691;95;25821;-81
2022/05/12 10:09:26;;;;;;;4.95;2.77;;;;;;;28.41;31.38;96939.98;1492612;95;25825;-77
2022/05/12 10:12:01;;;;;;;5.95;2.67;;;;;;;28.69;31.24;96948.02;1473994;97;25998;-75
2022/05/12 10:14:50;;;;;;;6.05;2.47;;;;;;;28.84;30.90;96927.98;1490081;94;25845;-73
2022/05/12 10:17:42;;;;;;;3.52;2.77;;;;;;;28.93;31.09;96940.39;1454251;98;27593;-78
2022/05/12 10:20:14;;;;;;;;;;;;;;;28.89;31.14;96926.94;1490810;96;25916;-76
2022/05/12 10:22:53;;;;;;;6.15;3.22;;;;;;;28.72;30.39;96930.67;1488758;95;25890;-75
2022/05/12 10:25:59;;;;;;;5.92;2.83;;;;;;;28.64;31.05;96932.93;1488550;96;26939;-75
2022/05/12 10:28:51;;;;;;;7.00;2.80;;;;;;;28.80;31.38;96927.61;1488634;96;25895;-76
2022/05/12 10:31:42;;;;;;;;;;;;;;;29.11;30.81;96929.33;1489311;96;27420;-80
2022/05/12 10:34:31;;;;;;;6.30;3.08;;;;;;;29.38;30.30;96930.14;1464253;97;26582;-76
2022/05/12 10:37:09;;;;;;;10.48;3.22;;;;;;;29.38;30.54;96939.87;1494350;94;25956;-75
2022/05/12 10:39:52;;;;;;;4.42;2.80;;;;;;;29.28;30.17;96942.25;1515852;94;26068;-76
2022/05/12 10:42:45;;;;;;;11.05;3.33;;;;;;;28.88;29.48;96934.46;1513041;93;25834;-75
2022/05/12 10:45:40;;;;;;;7.92;3.02;;;;;;;28.44;30.26;96937.92;1516135;91;28305;-76
2022/05/12 10:48:33;;;;;;;4.60;3.00;;;;;;;28.20;29.96;96948.29;1565977;91;25901;-75
2022/05/12 10:51:03;;;;;;;4.58;3.30;;;;;;;27.92;30.44;96945.96;1551840;92;25796;-74
2022/05/12 10:53:55;;;;;;;4.62;3.35;;;;;;;27.85;30.76;96949.03;1554394;92;25940;-76
2022/05/12 10:56:34;;;;;;;5.70;3.00;;;;;;;27.77;31.14;96949.89;1554300;92;27015;-76
2022/05/12 10:59:30;;;;;;;5.03;3.22;;;;;;;27.70;31.04;96935.72;1552551;92;28398;-75
2022/05/12 11:02:17;;;;;;;14.93;3.35;;;;;;;27.77;31.25;96938.80;1552092;92;25807;-77
2022/05/12 11:04:57;;;;;;;4.72;3.05;;;;;;;28.04;31.38;96932.76;1548610;92;25666;-75
2022/05/12 11:07:29;;;;;;;6.12;3.20;;;;;;;28.03;31.57;96937.25;1542379;92;26058;-77
2022/05/12 11:10:05;;;;;;;;;;;;;;;28.06;31.45;96933.81;1536904;93;25789;-74
2022/05/12 11:12:39;;;;;;;5.05;3.25;;;;;;;27.98;31.08;96934.69;1623320;88;27481;-78
2022/05/12 11:15:11;;;;;;;5.92;3.20;;;;;;;27.88;30.78;96923.41;1620111;88;25860;-74
2022/05/12 11:17:54;;;;;;;4.67;3.08;;;;;;;27.71;31.08;96931.80;1623340;88;25788;-79
2022/05/12 11:20:28;;;;;;;4.60;3.00;;;;;;;27.30;31.55;96933.22;1622423;88;26060;-74
2022/05/12 11:23:26;;;;;;;5.58;3.12;;;;;;;27.16;31.78;96935.41;1597402;89;25728;-75
2022/05/12 11:26:31;;;;;;;8.53;3.10;;;;;;;27.30;31.77;96944.30;1568169;90;27412;-75
2022/05/12 11:32:55;;;;;;;5.47;3.20;;;;;;;27.99;31.34;96928.81;1569466;90;26034;-75
2022/05/12 11:35:26;;;;;;;8.80;3.37;;;;;;;27.81;30.46;96937.78;1569152;91;25957;-75
2022/05/12 11:38:06;;;;;;;5.97;3.30;;;;;;;27.70;30.43;96931.56;1471858;95;25814;-77
2022/05/12 11:40:48;;;;;;;6.80;2.90;;;;;;;27.73;30.92;96932.28;1430806;97;27571;-74
2022/05/12 11:46:32;;;;;;;4.33;3.22;;;;;;;27.58;30.94;96923.38;1426086;98;25807;-74
2022/05/12 11:49:34;;;;;;;4.90;3.17;;;;;;;27.42;30.92;96930.57;1414497;98;26024;-74
2022/05/12 11:52:18;;;;;;;4.10;3.22;;;;;;;27.57;31.18;96920.36;1395023;101;25858;-75
2022/05/12 11:54:58;;;;;;;5.72;2.98;;;;;;;27.67;30.92;96929.45;1401955;101;27562;-77
2022/05/12 11:57:45;;;;;;;6.25;3.05;;;;;;;27.67;31.25;96932.22;1402324;99;26034;-77
2022/05/12 12:00:33;;;;;;;16.87;3.72;;;;;;;27.88;31.46;96933.11;1393384;102;25891;-75
2022/05/12 12:03:23;;;;;;;8.00;3.70;;;;;;;28.20;31.11;96935.23;1402137;99;26024;-75
2022/05/12 12:05:55;;;;;;;6.42;3.40;;;;;;;28.51;29.78;96926.50;1393266;101;25487;-74
2022/05/12 12:08:34;;;;;;;;;;;;;;;28.53;29.90;96946.98;1407489;99;27539;-74
2022/05/12 12:11:22;;;;;;;8.65;3.67;;;;;;;28.47;29.52;96942.80;1397361;101;25946;-76
2022/05/12 12:13:53;;;;;;;7.45;3.17;;;;;;;28.54;29.71;96938.90;1393124;101;25893;-76
2022/05/12 12:16:25;;;;;;;4.97;2.90;;;;;;;28.79;29.89;96936.52;1402413;99;25904;-77
2022/05/12 12:18:57;;;;;;;10.63;4.15;;;;;;;29.05;29.49;96939.63;1400404;99;25674;-74
2022/05/12 12:21:46;;;;;;;4.53;3.10;;;;;;;29.20;29.35;96946.75;1417787;99;27460;-77
2022/05/12 12:24:43;;;;;;;3.47;3.05;;;;;;;29.22;28.54;96946.41;1417661;99;25905;-74